logo
Search for airport 
image banner adimage banner adimage banner ad
image banner ad

OEPA - Al Qaisumah International

Located in Qaisumah, Saudi Arabia

ICAO - OEPA, IATA - AQI

Data provided by Airmate  

General information

Coordinates: N28°20'11" E46°7'37"
Elevation is 1176 feet MSL.
 
View others Airports in Ash Sharqiyah

Operational data

Special qualification required
Current time UTC:
Current local time:
Weather
METAR: OEPA 202200Z 12014KT 9999 TS FEW030CB SCT035 27/06 Q1006 TEMPO TSRA
View NOTAMs / SUP AIP / TFR affecting this airport [VIEW]
Communications frequencies: [VIEW]

Runways:

RWY identifierQFULength (ft)Width (ft)SurfaceLDA (ft)
16158°10007148ASP
34338°10007148ASP

Airport contact information

Address: Qaisumah Saudi Arabia

Satellite view of OEPA